Flowella, Texas
Current Conditions -  °F | °C
As of 6:15 PM on Friday 24 Oct 2014 (Local Time) from KBKS Reporting Station
Clear Clear  
Wind Chill: 82°   Ceiling: Unl
Heat Index: 82°   Visibility: 10mi
Dew Point: 59°   Wind: 8mph
Humidity: 46%   Direction: 80°E
Pressure: 30.06"   Gusts: NA
Location:  27.2181°N, 98.2459°W
Report Text: KBKS 242315Z AUTO 08007KT 10SM CLR 28/15 A3006 RMK AO1 T02770151
Loading
Personal Weather Stations






























Interactive Weather Map
Tropical Storm Tracking
New forecast layout! Learn more

10-Day Weather Forecast

Advertisements
Track Severe Weather on mobile